Time;durP1;ratioP1;P1;durP2;ratioP2;P2;SDS_P1;SDS_P2;PMS_P1;PMS_P2;Temp;Humidity;BMP_temperature;BMP_pressure;BME280_temperature;BME280_humidity;BME280_pressure;Samples;Min_cycle;Max_cycle;Signal;HPM_P1;HPM_P2
2023/02/10 00:00:44;;;;;;;21.6;12.9;;;;;;;-4.3;73.1;100480;;;;
2023/02/10 00:11:59;;;;;;;21.6;11;;;;;;;-4;71.9;100470;;;;
2023/02/10 00:22:44;;;;;;;20.2;11;;;;;;;-3.8;70.9;100470;;;;
2023/02/10 00:32:43;;;;;;;20.2;11;;;;;;;-3.9;70.9;100480;;;;
2023/02/10 00:43:44;;;;;;;14.3;7.7;;;;;;;-3.9;70.8;100490;;;;
2023/02/10 00:53:44;;;;;;;14.3;7.7;;;;;;;-4.2;71.8;100480;;;;
2023/02/10 01:04:43;;;;;;;14.3;7.7;;;;;;;-4.2;71.1;100490;;;;
2023/02/10 01:14:44;;;;;;;15.7;8.6;;;;;;;-4.3;71.2;100480;;;;
2023/02/10 01:24:43;;;;;;;15.7;8.6;;;;;;;-4.4;71.9;100460;;;;
2023/02/10 01:35:43;;;;;;;15.7;8.6;;;;;;;-4.5;71.9;100460;;;;
2023/02/10 01:45:45;;;;;;;14.5;8.6;;;;;;;-4.7;71.7;100440;;;;
2023/02/10 01:56:44;;;;;;;14.5;8.6;;;;;;;-4.7;72;100440;;;;
2023/02/10 02:07:44;;;;;;;14.5;8.6;;;;;;;-5;72;100440;;;;
2023/02/10 02:18:43;;;;;;;12.1;7.2;;;;;;;-5.2;73;100430;;;;
2023/02/10 02:29:45;;;;;;;12.1;7.2;;;;;;;-5.1;73.4;100420;;;;
2023/02/10 02:40:43;;;;;;;12.1;7.2;;;;;;;-4.9;73;100420;;;;
2023/02/10 02:50:43;;;;;;;10.3;6;;;;;;;-4.8;72.6;100420;;;;
2023/02/10 03:01:43;;;;;;;10.3;6;;;;;;;-4.8;72.3;100420;;;;
2023/02/10 03:11:43;;;;;;;9.7;5.8;;;;;;;-4.7;71.8;100420;;;;
2023/02/10 03:21:43;;;;;;;9.7;5.8;;;;;;;-4.9;71.9;100420;;;;
2023/02/10 03:31:44;;;;;;;9.7;5.8;;;;;;;-5;72;100420;;;;
2023/02/10 03:42:45;;;;;;;13.4;6.8;;;;;;;-5.2;72.6;100430;;;;
2023/02/10 03:52:43;;;;;;;13.4;6.8;;;;;;;-5.2;73.4;100410;;;;
2023/02/10 04:03:43;;;;;;;13.4;6.8;;;;;;;-5;73.5;100430;;;;
2023/02/10 04:13:43;;;;;;;10.3;6.8;;;;;;;-5;73.5;100430;;;;
2023/02/10 04:24:43;;;;;;;10.3;6.8;;;;;;;-5.1;73.3;100430;;;;
2023/02/10 04:35:44;;;;;;;10.3;6.8;;;;;;;-5.4;73.6;100450;;;;
2023/02/10 04:46:43;;;;;;;13.1;6.2;;;;;;;-5.4;74.3;100450;;;;
2023/02/10 04:56:43;;;;;;;13.1;6.2;;;;;;;-5.3;75.1;100460;;;;
2023/02/10 05:06:43;;;;;;;13.1;6.2;;;;;;;-5.1;75.4;100470;;;;
2023/02/10 05:16:43;;;;;;;19.1;9.7;;;;;;;-5.1;75.4;100470;;;;
2023/02/10 05:26:43;;;;;;;19.1;9.7;;;;;;;-5.2;75.4;100480;;;;
2023/02/10 05:37:45;;;;;;;19.1;9.7;;;;;;;-5.2;75.5;100490;;;;
2023/02/10 05:47:43;;;;;;;23.4;12;;;;;;;-5.3;75.6;100500;;;;
2023/02/10 05:58:43;;;;;;;23.4;12;;;;;;;-5.4;75.8;100500;;;;
2023/02/10 06:09:44;;;;;;;23.4;12;;;;;;;-5.5;76.2;100500;;;;
2023/02/10 06:19:43;;;;;;;22.1;10.8;;;;;;;-5.4;76.4;100510;;;;
2023/02/10 06:29:44;;;;;;;22.1;10.8;;;;;;;-5.4;76.1;100520;;;;
2023/02/10 06:40:43;;;;;;;40.6;19.4;;;;;;;-5.4;76;100520;;;;
2023/02/10 06:50:43;;;;;;;40.6;19.4;;;;;;;-5.3;75.9;100510;;;;
2023/02/10 07:01:43;;;;;;;40.6;19.4;;;;;;;-4.9;75.6;100530;;;;
2023/02/10 07:11:43;;;;;;;21.5;12.1;;;;;;;-4.6;75;100540;;;;
2023/02/10 07:22:43;;;;;;;21.5;12.1;;;;;;;-4.2;74.3;100550;;;;
2023/02/10 07:33:43;;;;;;;21.5;12.1;;;;;;;-4;74.4;100540;;;;
2023/02/10 07:43:43;;;;;;;21.7;14.1;;;;;;;-3.7;73.7;100540;;;;
2023/02/10 07:54:43;;;;;;;21.7;14.1;;;;;;;-3.3;73.2;100550;;;;
2023/02/10 08:04:43;;;;;;;21.7;14.1;;;;;;;-3;72.9;100550;;;;
2023/02/10 08:14:43;;;;;;;28;17.2;;;;;;;-2.6;72.7;100570;;;;
2023/02/10 08:24:43;;;;;;;28;17.2;;;;;;;-2.1;71;100570;;;;
2023/02/10 08:35:43;;;;;;;28;17.2;;;;;;;-1.6;69.3;100590;;;;
2023/02/10 08:45:43;;;;;;;27.5;15.5;;;;;;;-1.1;68.4;100570;;;;
2023/02/10 08:55:43;;;;;;;27.5;15.5;;;;;;;-0.6;67.3;100560;;;;
2023/02/10 09:06:43;;;;;;;27.5;15.5;;;;;;;-0.2;65.7;100570;;;;
2023/02/10 09:17:43;;;;;;;28.2;17.1;;;;;;;0.2;63.9;100580;;;;
2023/02/10 09:27:43;;;;;;;28.2;17.1;;;;;;;0.4;63.5;100590;;;;
2023/02/10 09:38:43;;;;;;;28.2;17.1;;;;;;;0.7;63.7;100580;;;;
2023/02/10 09:48:43;;;;;;;31.7;17.3;;;;;;;0.9;63.5;100560;;;;
2023/02/10 09:59:43;;;;;;;31.7;17.3;;;;;;;1.2;62.3;100560;;;;
2023/02/10 10:10:43;;;;;;;39.4;23.1;;;;;;;1.6;62.2;100560;;;;
2023/02/10 10:20:43;;;;;;;39.4;23.1;;;;;;;1.9;62.4;100550;;;;
2023/02/10 10:31:43;;;;;;;39.4;23.1;;;;;;;2.4;61.2;100540;;;;
2023/02/10 10:42:43;;;;;;;39.7;26.6;;;;;;;3;58;100530;;;;
2023/02/10 10:52:43;;;;;;;39.7;26.6;;;;;;;3.3;57.2;100530;;;;
2023/02/10 11:02:43;;;;;;;39.7;26.6;;;;;;;3.6;55.8;100520;;;;
2023/02/10 11:12:43;;;;;;;31.7;24.2;;;;;;;4.3;55.2;100500;;;;
2023/02/10 11:22:43;;;;;;;31.7;24.2;;;;;;;4.2;54.1;100500;;;;
2023/02/10 11:32:43;;;;;;;31.7;24.2;;;;;;;4.2;53.1;100500;;;;
2023/02/10 11:43:43;;;;;;;19.1;13.7;;;;;;;4.7;53.7;100480;;;;
2023/02/10 11:54:43;;;;;;;19.1;13.7;;;;;;;4.4;52;100480;;;;
2023/02/10 12:05:43;;;;;;;19.1;13.7;;;;;;;4.7;51.3;100470;;;;
2023/02/10 12:16:44;;;;;;;19;14.1;;;;;;;4.9;51.2;100480;;;;
2023/02/10 12:26:43;;;;;;;19;14.1;;;;;;;4.7;52;100470;;;;
2023/02/10 12:37:43;;;;;;;19;14.1;;;;;;;4.4;53.6;100480;;;;
2023/02/10 12:47:43;;;;;;;21.8;16.2;;;;;;;4;55.7;100490;;;;
2023/02/10 12:58:43;;;;;;;21.8;16.2;;;;;;;3.6;57.1;100490;;;;
2023/02/10 13:09:43;;;;;;;25.3;17.3;;;;;;;3.4;58.8;100510;;;;
2023/02/10 13:19:43;;;;;;;25.3;17.3;;;;;;;3.5;58.7;100500;;;;
2023/02/10 13:29:43;;;;;;;25.3;17.3;;;;;;;3.3;58.6;100490;;;;
2023/02/10 13:40:43;;;;;;;28.2;18.7;;;;;;;3.4;59.3;100500;;;;
2023/02/10 13:50:43;;;;;;;28.2;18.7;;;;;;;3.7;59.1;100510;;;;
2023/02/10 14:01:43;;;;;;;28.2;18.7;;;;;;;3.7;59.9;100510;;;;
2023/02/10 14:12:43;;;;;;;26.9;18.8;;;;;;;3.8;61.1;100520;;;;
2023/02/10 14:23:43;;;;;;;26.9;18.8;;;;;;;3.4;64.2;100520;;;;
2023/02/10 14:34:45;;;;;;;26.9;18.8;;;;;;;3.1;67.4;100520;;;;
2023/02/10 14:44:43;;;;;;;15.4;10.4;;;;;;;3.1;67.6;100520;;;;
2023/02/10 14:55:43;;;;;;;15.4;10.4;;;;;;;3;67;100550;;;;
2023/02/10 15:05:43;;;;;;;15.4;10.4;;;;;;;2.8;67.7;100560;;;;
2023/02/10 15:15:43;;;;;;;16.3;10.5;;;;;;;2.7;68.1;100570;;;;
2023/02/10 15:26:43;;;;;;;16.3;10.5;;;;;;;2.5;67.2;100590;;;;
2023/02/10 15:37:42;;;;;;;16.3;10.5;;;;;;;2.2;66.5;100590;;;;
2023/02/10 15:47:43;;;;;;;30.9;17.7;;;;;;;2;66.8;100600;;;;
2023/02/10 15:57:43;;;;;;;30.9;17.7;;;;;;;1.9;67.3;100600;;;;
2023/02/10 16:08:43;;;;;;;34.8;20.4;;;;;;;1.9;68.2;100600;;;;
2023/02/10 16:19:43;;;;;;;34.8;20.4;;;;;;;1.8;68.9;100600;;;;
2023/02/10 16:29:43;;;;;;;34.8;20.4;;;;;;;1.8;68.9;100610;;;;
2023/02/10 16:40:42;;;;;;;31;17.1;;;;;;;1.8;68.8;100600;;;;
2023/02/10 16:50:42;;;;;;;31;17.1;;;;;;;1.8;68.8;100620;;;;
2023/02/10 17:01:43;;;;;;;31;17.1;;;;;;;1.8;68.6;100610;;;;
2023/02/10 17:12:42;;;;;;;28.2;18.1;;;;;;;1.9;68.5;100620;;;;
2023/02/10 17:22:43;;;;;;;28.2;18.1;;;;;;;1.8;68.2;100630;;;;
2023/02/10 17:32:44;;;;;;;28.2;18.1;;;;;;;1.8;68.4;100620;;;;
2023/02/10 17:42:44;;;;;;;38.9;23.6;;;;;;;1.7;68.4;100620;;;;
2023/02/10 17:53:42;;;;;;;38.9;23.6;;;;;;;1.7;68.5;100620;;;;
2023/02/10 18:04:43;;;;;;;38.9;23.6;;;;;;;1.7;69;100610;;;;
2023/02/10 18:14:43;;;;;;;37.3;22.8;;;;;;;1.7;68.8;100600;;;;
2023/02/10 18:25:43;;;;;;;37.3;22.8;;;;;;;1.7;68.8;100590;;;;
2023/02/10 18:35:42;;;;;;;37.3;22.8;;;;;;;1.7;68.9;100600;;;;
2023/02/10 18:46:42;;;;;;;37.5;23;;;;;;;1.7;68.6;100590;;;;
2023/02/10 18:57:42;;;;;;;37.5;23;;;;;;;1.7;68.5;100580;;;;
2023/02/10 19:07:42;;;;;;;37.5;23;;;;;;;1.7;68.2;100590;;;;
2023/02/10 19:17:42;;;;;;;38.1;24.6;;;;;;;1.8;68.3;100590;;;;
2023/02/10 19:27:42;;;;;;;38.1;24.6;;;;;;;1.8;68.7;100590;;;;
2023/02/10 19:37:42;;;;;;;38.1;24.6;;;;;;;1.8;68.7;100600;;;;
2023/02/10 19:47:44;;;;;;;39;25;;;;;;;1.8;69.3;100600;;;;
2023/02/10 19:58:42;;;;;;;39;25;;;;;;;1.7;69.3;100600;;;;
2023/02/10 20:09:42;;;;;;;50.1;27.8;;;;;;;1.7;69.1;100600;;;;
2023/02/10 20:19:42;;;;;;;50.1;27.8;;;;;;;1.7;69.3;100610;;;;
2023/02/10 20:29:42;;;;;;;50.1;27.8;;;;;;;1.7;69.3;100590;;;;
2023/02/10 20:40:42;;;;;;;47.7;27.2;;;;;;;1.6;69.8;100580;;;;
2023/02/10 20:50:42;;;;;;;47.7;27.2;;;;;;;1.5;70.3;100560;;;;
2023/02/10 21:00:42;;;;;;;47.7;27.2;;;;;;;1.5;70.3;100550;;;;
2023/02/10 21:10:43;;;;;;;46;29.6;;;;;;;1.4;70.5;100560;;;;
2023/02/10 21:20:42;;;;;;;46;29.6;;;;;;;1.5;70.5;100550;;;;
2023/02/10 21:30:42;;;;;;;46;29.6;;;;;;;1.3;71.5;100540;;;;
2023/02/10 21:41:45;;;;;;;50;27.7;;;;;;;1.4;71;100520;;;;
2023/02/10 21:51:42;;;;;;;50;27.7;;;;;;;1.4;71.1;100530;;;;
2023/02/10 22:01:42;;;;;;;50;27.7;;;;;;;1.3;71;100520;;;;
2023/02/10 22:12:42;;;;;;;39.3;25.4;;;;;;;1;71.3;100520;;;;
2023/02/10 22:23:42;;;;;;;39.3;25.4;;;;;;;0.4;72.2;100540;;;;
2023/02/10 22:33:42;;;;;;;39.3;25.4;;;;;;;0;72.8;100510;;;;
2023/02/10 22:43:42;;;;;;;51.5;31.2;;;;;;;-0.4;75.3;100490;;;;
2023/02/10 22:54:42;;;;;;;51.5;31.2;;;;;;;-0.7;75.3;100490;;;;
2023/02/10 23:04:42;;;;;;;51.5;31.2;;;;;;;-1;74.7;100490;;;;
2023/02/10 23:14:42;;;;;;;35.4;20.6;;;;;;;-1.3;75.4;100470;;;;
2023/02/10 23:25:42;;;;;;;35.4;20.6;;;;;;;-1.4;76.6;100480;;;;
2023/02/10 23:35:42;;;;;;;35.4;20.6;;;;;;;-1.5;76.3;100460;;;;
2023/02/10 23:45:42;;;;;;;32.1;19.1;;;;;;;-1.6;76.6;100460;;;;
2023/02/10 23:56:42;;;;;;;32.1;19.1;;;;;;;-1.8;76.4;100450;;;;
